Time;durP1;ratioP1;P1;durP2;ratioP2;P2;SDS_P1;SDS_P2;PMS_P1;PMS_P2;Temp;Humidity;BMP_temperature;BMP_pressure;BME280_temperature;BME280_humidity;BME280_pressure;Samples;Min_cycle;Max_cycle;Signal;HPM_P1;HPM_P2
2023/03/05 00:01:28;;;;;;;19.10;11.00;;;;;;;;;;5005812;28;20477;-53
2023/03/05 00:03:55;;;;;;;20.73;10.83;;;;;;;;;;4999270;28;20526;-55
2023/03/05 00:06:21;;;;;;;20.37;11.83;;;;;;;;;;5030163;28;20443;-54
2023/03/05 00:08:48;;;;;;;17.13;10.50;;;;;;;;;;5030041;28;20552;-56
2023/03/05 00:11:14;;;;;;;26.47;13.33;;;;;;;;;;5039181;28;20441;-54
2023/03/05 00:13:41;;;;;;;19.20;11.30;;;;;;;;;;5012399;28;20937;-54
2023/03/05 00:16:11;;;;;;;18.80;10.13;;;;;;;;;;5015717;28;20975;-54
2023/03/05 00:19:09;;;;;;;20.87;11.20;;;;;;;;;;5012234;28;21300;-54
2023/03/05 00:21:36;;;;;;;21.63;12.13;;;;;;;;;;5005526;28;20489;-54
2023/03/05 00:24:03;;;;;;;21.90;11.83;;;;;;;;;;5024970;28;20987;-54
2023/03/05 00:26:29;;;;;;;21.83;11.80;;;;;;;;;;5013542;28;20430;-53
2023/03/05 00:28:55;;;;;;;22.80;11.70;;;;;;;;;;5034359;28;20450;-55
2023/03/05 00:31:28;;;;;;;25.47;12.10;;;;;;;;;;5028207;28;20878;-56
2023/03/05 00:33:55;;;;;;;16.57;11.00;;;;;;;;;;5039829;28;20478;-54
2023/03/05 00:36:21;;;;;;;22.77;12.37;;;;;;;;;;5006394;28;20524;-55
2023/03/05 00:38:47;;;;;;;24.13;14.30;;;;;;;;;;5037228;28;20439;-54
2023/03/05 00:41:13;;;;;;;24.77;13.53;;;;;;;;;;5034240;28;20422;-55
2023/03/05 00:43:39;;;;;;;19.93;13.17;;;;;;;;;;5032624;28;20637;-53
2023/03/05 00:46:05;;;;;;;23.80;14.77;;;;;;;;;;5004896;28;20443;-53
2023/03/05 00:48:31;;;;;;;21.83;12.63;;;;;;;;;;5024445;28;20450;-54
2023/03/05 00:50:57;;;;;;;24.23;12.40;;;;;;;;;;4993354;28;20446;-55
2023/03/05 00:53:23;;;;;;;22.53;12.20;;;;;;;;;;5029803;28;20184;-51
2023/03/05 00:55:49;;;;;;;16.40;10.17;;;;;;;;;;5007579;28;20450;-55
2023/03/05 00:58:14;;;;;;;19.47;9.90;;;;;;;;;;5035986;28;20426;-53
2023/03/05 01:00:40;;;;;;;20.13;9.57;;;;;;;;;;5021228;28;20441;-56
2023/03/05 01:03:06;;;;;;;19.53;11.40;;;;;;;;;;5024884;28;20482;-55
2023/03/05 01:05:32;;;;;;;18.80;10.73;;;;;;;;;;5029958;28;20445;-54
2023/03/05 01:07:58;;;;;;;16.83;11.30;;;;;;;;;;5039177;28;20438;-54
2023/03/05 01:10:29;;;;;;;25.77;12.67;;;;;;;;;;5007254;28;21023;-53
2023/03/05 01:12:55;;;;;;;17.83;10.37;;;;;;;;;;5034250;28;20439;-55
2023/03/05 01:15:21;;;;;;;18.47;10.77;;;;;;;;;;5005661;28;20934;-55
2023/03/05 01:17:47;;;;;;;19.20;10.37;;;;;;;;;;5034522;28;20438;-54
2023/03/05 01:20:13;;;;;;;20.77;10.83;;;;;;;;;;5009668;28;20437;-54
2023/03/05 01:22:39;;;;;;;21.53;9.47;;;;;;;;;;5025068;28;20446;-53
2023/03/05 01:25:06;;;;;;;24.10;10.13;;;;;;;;;;4994016;28;20851;-54
2023/03/05 01:27:31;;;;;;;17.50;9.67;;;;;;;;;;5038607;28;20442;-54
2023/03/05 01:29:57;;;;;;;23.47;10.70;;;;;;;;;;5016266;28;20452;-53
2023/03/05 01:32:23;;;;;;;22.03;10.20;;;;;;;;;;5034180;28;20438;-54
2023/03/05 01:34:49;;;;;;;22.77;10.40;;;;;;;;;;5025526;28;20184;-54
2023/03/05 01:37:15;;;;;;;14.57;9.30;;;;;;;;;;5035577;28;20441;-52
2023/03/05 01:39:41;;;;;;;17.47;9.43;;;;;;;;;;5031334;28;20443;-55
2023/03/05 01:42:07;;;;;;;23.23;10.60;;;;;;;;;;5057051;28;20439;-54
2023/03/05 01:44:33;;;;;;;18.20;9.67;;;;;;;;;;4994711;28;20475;-52
2023/03/05 01:46:59;;;;;;;15.00;9.17;;;;;;;;;;5029690;28;21229;-54
2023/03/05 01:49:26;;;;;;;19.50;10.27;;;;;;;;;;5029678;28;20442;-55
2023/03/05 01:51:55;;;;;;;20.30;11.67;;;;;;;;;;5034925;28;20470;-55
2023/03/05 01:54:21;;;;;;;13.20;8.90;;;;;;;;;;4985606;28;20632;-55
2023/03/05 01:56:48;;;;;;;16.93;8.30;;;;;;;;;;5035338;28;20481;-55
2023/03/05 01:59:14;;;;;;;21.00;10.67;;;;;;;;;;5020426;28;21294;-53
2023/03/05 02:01:41;;;;;;;15.90;10.57;;;;;;;;;;5035726;28;20434;-54
2023/03/05 02:04:08;;;;;;;16.20;9.47;;;;;;;;;;5016518;28;20741;-55
2023/03/05 02:06:34;;;;;;;19.43;10.47;;;;;;;;;;5020481;28;20450;-55
2023/03/05 02:09:00;;;;;;;16.10;8.47;;;;;;;;;;5036050;28;20503;-55
2023/03/05 02:11:26;;;;;;;13.53;9.50;;;;;;;;;;5030425;28;20477;-55
2023/03/05 02:13:55;;;;;;;15.80;8.33;;;;;;;;;;5031624;28;20458;-54
2023/03/05 02:16:21;;;;;;;17.87;8.97;;;;;;;;;;4996754;28;20435;-54
2023/03/05 02:18:47;;;;;;;18.27;7.77;;;;;;;;;;5035873;28;20446;-54
2023/03/05 02:21:13;;;;;;;13.53;7.60;;;;;;;;;;5026038;28;21346;-55
2023/03/05 02:23:39;;;;;;;15.30;8.90;;;;;;;;;;5032217;28;20502;-55
2023/03/05 02:26:06;;;;;;;14.30;7.00;;;;;;;;;;4982690;28;20839;-55
2023/03/05 02:28:39;;;;;;;14.57;7.43;;;;;;;;;;5033049;28;20451;-52
2023/03/05 02:31:24;;;;;;;13.17;7.87;;;;;;;;;;5023166;28;20430;-53
2023/03/05 02:33:50;;;;;;;14.90;8.77;;;;;;;;;;5054420;28;20938;-55
2023/03/05 02:36:16;;;;;;;13.27;8.40;;;;;;;;;;5003525;28;20510;-53
2023/03/05 02:38:42;;;;;;;12.07;7.00;;;;;;;;;;5033427;28;20641;-53
2023/03/05 02:41:08;;;;;;;13.83;7.87;;;;;;;;;;5046812;28;20484;-53
2023/03/05 02:43:34;;;;;;;16.53;8.13;;;;;;;;;;5024837;28;20589;-53
2023/03/05 02:46:00;;;;;;;12.40;8.17;;;;;;;;;;4994807;28;20792;-54
2023/03/05 02:48:26;;;;;;;14.00;7.87;;;;;;;;;;5019602;28;21057;-54
2023/03/05 02:50:52;;;;;;;23.57;9.40;;;;;;;;;;5014059;28;20445;-53
2023/03/05 02:53:18;;;;;;;13.33;6.70;;;;;;;;;;5033042;28;20443;-54
2023/03/05 02:55:46;;;;;;;17.17;8.60;;;;;;;;;;5002106;28;21060;-54
2023/03/05 02:58:12;;;;;;;19.27;7.13;;;;;;;;;;5029246;28;20510;-55
2023/03/05 03:00:38;;;;;;;15.23;9.17;;;;;;;;;;5020895;28;20533;-50
2023/03/05 03:03:04;;;;;;;19.97;7.73;;;;;;;;;;5038941;28;20886;-54
2023/03/05 03:05:30;;;;;;;15.33;8.00;;;;;;;;;;4995937;28;20504;-54
2023/03/05 03:07:56;;;;;;;18.37;8.33;;;;;;;;;;5024619;28;20449;-54
2023/03/05 03:10:22;;;;;;;15.03;8.80;;;;;;;;;;5028730;28;20441;-55
2023/03/05 03:12:48;;;;;;;16.13;7.10;;;;;;;;;;5033377;28;20442;-54
2023/03/05 03:15:14;;;;;;;21.80;8.27;;;;;;;;;;5017136;28;21523;-53
2023/03/05 03:17:40;;;;;;;14.00;7.40;;;;;;;;;;5030178;28;20832;-54
2023/03/05 03:20:07;;;;;;;15.17;7.37;;;;;;;;;;5040251;28;20978;-54
2023/03/05 03:22:33;;;;;;;14.93;7.23;;;;;;;;;;5037630;28;20450;-54
2023/03/05 03:25:12;;;;;;;;;;;;;;;;;;;;;
2023/03/05 03:27:41;;;;;;;15.63;7.53;;;;;;;;;;5013141;28;20445;-54
2023/03/05 03:30:07;;;;;;;16.60;7.43;;;;;;;;;;5042779;28;20438;-53
2023/03/05 03:32:33;;;;;;;20.83;8.90;;;;;;;;;;5011599;28;20445;-52
2023/03/05 03:34:59;;;;;;;13.20;7.13;;;;;;;;;;5032521;28;20521;-54
2023/03/05 03:37:25;;;;;;;15.30;7.30;;;;;;;;;;5009280;28;20445;-55
2023/03/05 03:39:51;;;;;;;12.03;8.10;;;;;;;;;;5033837;28;20448;-52
2023/03/05 03:42:17;;;;;;;13.50;8.07;;;;;;;;;;5049859;28;22187;-53
2023/03/05 03:44:43;;;;;;;15.30;7.70;;;;;;;;;;5032249;28;20621;-53
2023/03/05 03:47:09;;;;;;;20.47;8.30;;;;;;;;;;5007740;28;20939;-54
2023/03/05 03:49:35;;;;;;;16.27;7.27;;;;;;;;;;5031713;28;21001;-52
2023/03/05 03:52:01;;;;;;;14.07;7.13;;;;;;;;;;5035139;28;20441;-56
2023/03/05 03:54:27;;;;;;;15.23;8.60;;;;;;;;;;5037476;28;20430;-54
2023/03/05 03:56:53;;;;;;;18.27;8.27;;;;;;;;;;4987370;28;21143;-54
2023/03/05 03:59:19;;;;;;;15.37;7.67;;;;;;;;;;5029183;28;21073;-55
2023/03/05 04:01:45;;;;;;;16.00;7.10;;;;;;;;;;5026365;28;21210;-54
2023/03/05 04:04:11;;;;;;;15.93;8.20;;;;;;;;;;5018236;28;20470;-54
2023/03/05 04:06:37;;;;;;;12.20;7.30;;;;;;;;;;5034530;28;20484;-54
2023/03/05 04:09:03;;;;;;;16.20;8.00;;;;;;;;;;5031193;28;20948;-53
2023/03/05 04:11:29;;;;;;;18.00;7.90;;;;;;;;;;5036342;28;21027;-55
2023/03/05 04:13:55;;;;;;;19.27;8.60;;;;;;;;;;5017696;28;20503;-55
2023/03/05 04:16:21;;;;;;;17.73;7.77;;;;;;;;;;5038459;28;20442;-54
2023/03/05 04:18:47;;;;;;;16.37;8.33;;;;;;;;;;5004821;28;20459;-53
2023/03/05 04:21:13;;;;;;;22.03;8.67;;;;;;;;;;5035457;28;20422;-52
2023/03/05 04:23:39;;;;;;;15.67;8.53;;;;;;;;;;5030901;28;20474;-52
2023/03/05 04:26:05;;;;;;;17.50;6.93;;;;;;;;;;5037918;28;20450;-54
2023/03/05 04:28:31;;;;;;;12.87;6.23;;;;;;;;;;4988803;28;20450;-53
2023/03/05 04:30:57;;;;;;;18.43;7.87;;;;;;;;;;5033790;28;20788;-55
2023/03/05 04:33:23;;;;;;;11.87;7.27;;;;;;;;;;5013402;28;20439;-57
2023/03/05 04:35:49;;;;;;;16.80;8.67;;;;;;;;;;5040241;28;20496;-53
2023/03/05 04:38:14;;;;;;;13.00;7.30;;;;;;;;;;5035864;28;20461;-53
2023/03/05 04:40:40;;;;;;;13.10;7.03;;;;;;;;;;5036345;28;20446;-54
2023/03/05 04:43:06;;;;;;;14.87;8.83;;;;;;;;;;5039417;28;20485;-53
2023/03/05 04:45:32;;;;;;;16.70;9.20;;;;;;;;;;5041695;28;20443;-53
2023/03/05 04:47:59;;;;;;;17.07;9.27;;;;;;;;;;5009539;28;20481;-54
2023/03/05 04:50:25;;;;;;;17.97;8.03;;;;;;;;;;5036031;28;20478;-54
2023/03/05 04:52:51;;;;;;;12.97;7.57;;;;;;;;;;5024048;28;20474;-55
2023/03/05 04:55:17;;;;;;;14.77;9.00;;;;;;;;;;5036126;28;20480;-55
2023/03/05 04:57:46;;;;;;;15.90;7.60;;;;;;;;;;5019037;28;20956;-54
2023/03/05 05:00:14;;;;;;;16.67;8.60;;;;;;;;;;5014336;28;20446;-55
2023/03/05 05:02:41;;;;;;;18.00;7.33;;;;;;;;;;5035461;28;20449;-54
2023/03/05 05:05:07;;;;;;;17.23;8.20;;;;;;;;;;5013779;28;20929;-54
2023/03/05 05:07:33;;;;;;;23.00;9.20;;;;;;;;;;5044912;28;20510;-54
2023/03/05 05:09:59;;;;;;;13.57;9.20;;;;;;;;;;5036893;28;20438;-52
2023/03/05 05:12:27;;;;;;;16.10;9.53;;;;;;;;;;5036602;28;21052;-56
2023/03/05 05:14:53;;;;;;;14.17;8.67;;;;;;;;;;5033906;28;20624;-54
2023/03/05 05:17:19;;;;;;;12.90;7.47;;;;;;;;;;5038720;28;20459;-55
2023/03/05 05:19:45;;;;;;;14.90;8.47;;;;;;;;;;5005704;28;20458;-53
2023/03/05 05:22:11;;;;;;;17.00;8.43;;;;;;;;;;5038081;28;20453;-52
2023/03/05 05:24:37;;;;;;;14.07;8.03;;;;;;;;;;5012573;28;20535;-53
2023/03/05 05:27:03;;;;;;;11.97;7.13;;;;;;;;;;5041874;28;20184;-52
2023/03/05 05:29:29;;;;;;;20.40;9.70;;;;;;;;;;4995060;28;20450;-53
2023/03/05 05:31:55;;;;;;;17.17;9.13;;;;;;;;;;5037699;28;20446;-53
2023/03/05 05:34:24;;;;;;;17.03;8.63;;;;;;;;;;5029830;28;20442;-53
2023/03/05 05:36:50;;;;;;;20.73;9.23;;;;;;;;;;5025712;28;20854;-53
2023/03/05 05:39:16;;;;;;;16.53;9.33;;;;;;;;;;5043038;28;20446;-53
2023/03/05 05:41:42;;;;;;;15.03;9.20;;;;;;;;;;5039704;28;20690;-54
2023/03/05 05:44:08;;;;;;;21.87;9.90;;;;;;;;;;5034868;28;20474;-52
2023/03/05 05:46:34;;;;;;;18.03;9.40;;;;;;;;;;5018870;28;20454;-54
2023/03/05 05:49:00;;;;;;;13.20;6.90;;;;;;;;;;5040338;28;20534;-52
2023/03/05 05:51:26;;;;;;;14.33;8.57;;;;;;;;;;5010039;28;21033;-52
2023/03/05 05:53:52;;;;;;;14.27;7.87;;;;;;;;;;5047826;28;20453;-52
2023/03/05 05:56:18;;;;;;;16.27;8.40;;;;;;;;;;5016566;28;20438;-54
2023/03/05 05:58:45;;;;;;;14.90;9.00;;;;;;;;;;5037740;28;20513;-53
2023/03/05 06:01:12;;;;;;;13.67;9.40;;;;;;;;;;4994432;28;20445;-52
2023/03/05 06:03:38;;;;;;;22.03;11.17;;;;;;;;;;5037113;28;21017;-53
2023/03/05 06:06:07;;;;;;;19.07;8.90;;;;;;;;;;5011829;28;20582;-53
2023/03/05 06:08:33;;;;;;;12.40;8.30;;;;;;;;;;5040249;28;20465;-53
2023/03/05 06:10:59;;;;;;;26.60;11.20;;;;;;;;;;5029393;28;20956;-53
2023/03/05 06:13:25;;;;;;;14.67;10.20;;;;;;;;;;5035027;28;21026;-52
2023/03/05 06:15:56;;;;;;;16.90;8.70;;;;;;;;;;5013494;28;20577;-52
2023/03/05 06:18:22;;;;;;;15.53;9.30;;;;;;;;;;5038070;28;21144;-52
2023/03/05 06:20:58;;;;;;;16.67;8.77;;;;;;;;;;5003383;28;20442;-53
2023/03/05 06:23:24;;;;;;;14.10;8.97;;;;;;;;;;5033132;28;20482;-52
2023/03/05 06:25:50;;;;;;;18.73;10.03;;;;;;;;;;5031076;28;20441;-52
2023/03/05 06:28:16;;;;;;;21.67;9.67;;;;;;;;;;5038860;28;20469;-53
2023/03/05 06:30:51;;;;;;;21.70;11.80;;;;;;;;;;5011164;28;20435;-53
2023/03/05 06:33:17;;;;;;;22.23;9.30;;;;;;;;;;5028862;28;20458;-53
2023/03/05 06:35:43;;;;;;;16.07;11.07;;;;;;;;;;5032167;28;20475;-52
2023/03/05 06:38:09;;;;;;;20.10;10.23;;;;;;;;;;5012163;28;20445;-52
2023/03/05 06:40:35;;;;;;;19.30;9.50;;;;;;;;;;5048677;28;20445;-53
2023/03/05 06:43:01;;;;;;;18.57;9.70;;;;;;;;;;5030877;28;20513;-52
2023/03/05 06:45:27;;;;;;;21.00;10.83;;;;;;;;;;5035588;28;21425;-54
2023/03/05 06:47:53;;;;;;;22.90;11.30;;;;;;;;;;5009720;28;20573;-52
2023/03/05 06:50:19;;;;;;;19.43;9.80;;;;;;;;;;5038005;28;20443;-52
2023/03/05 06:52:45;;;;;;;17.73;9.90;;;;;;;;;;4997814;28;20446;-53
2023/03/05 06:55:11;;;;;;;16.93;11.00;;;;;;;;;;5033731;28;20521;-53
2023/03/05 06:57:37;;;;;;;19.03;10.47;;;;;;;;;;5031233;28;20493;-53
2023/03/05 07:00:08;;;;;;;18.20;10.37;;;;;;;;;;5011291;28;20469;-53
2023/03/05 07:05:25;;;;;;;19.20;10.77;;;;;;;;;;4995712;28;20544;-51
2023/03/05 07:07:51;;;;;;;22.17;10.73;;;;;;;;;;5039108;28;20588;-52
2023/03/05 07:10:17;;;;;;;19.47;10.90;;;;;;;;;;5008867;28;20456;-51
2023/03/05 07:12:43;;;;;;;18.83;10.60;;;;;;;;;;5036429;28;20489;-51
2023/03/05 07:15:09;;;;;;;22.73;10.03;;;;;;;;;;5008903;28;20435;-56
2023/03/05 07:17:35;;;;;;;20.97;8.87;;;;;;;;;;5042259;28;20184;-52
2023/03/05 07:20:03;;;;;;;17.77;9.40;;;;;;;;;;5013346;28;20438;-52
2023/03/05 07:22:29;;;;;;;20.43;12.20;;;;;;;;;;5039019;28;20476;-53
2023/03/05 07:24:54;;;;;;;18.67;9.73;;;;;;;;;;5003112;28;20466;-51
2023/03/05 07:27:24;;;;;;;15.20;9.63;;;;;;;;;;5026629;28;20915;-52
2023/03/05 07:29:50;;;;;;;18.17;10.20;;;;;;;;;;5039028;28;20438;-51
2023/03/05 07:32:16;;;;;;;17.00;11.13;;;;;;;;;;5048752;28;20441;-52
2023/03/05 07:34:42;;;;;;;15.20;10.10;;;;;;;;;;4994900;28;20441;-52
2023/03/05 07:37:08;;;;;;;18.07;9.70;;;;;;;;;;5037146;28;20525;-53
2023/03/05 07:39:34;;;;;;;19.23;10.60;;;;;;;;;;5010673;28;20267;-54
2023/03/05 07:41:59;;;;;;;17.83;9.57;;;;;;;;;;5035515;28;20451;-54
2023/03/05 07:44:25;;;;;;;14.57;9.03;;;;;;;;;;5010843;28;20478;-54
2023/03/05 07:46:51;;;;;;;18.50;10.33;;;;;;;;;;5037702;28;20503;-54
2023/03/05 07:49:17;;;;;;;15.67;9.60;;;;;;;;;;5008426;28;20613;-60
2023/03/05 07:51:43;;;;;;;15.73;10.03;;;;;;;;;;5034674;28;20427;-52
2023/03/05 07:54:09;;;;;;;15.87;9.77;;;;;;;;;;5038110;28;20437;-54
2023/03/05 07:56:35;;;;;;;19.70;10.30;;;;;;;;;;5039383;28;20469;-51
2023/03/05 07:59:04;;;;;;;20.87;10.10;;;;;;;;;;5018499;28;20465;-51
2023/03/05 08:01:30;;;;;;;16.30;8.93;;;;;;;;;;5025324;28;20443;-56
2023/03/05 08:04:05;;;;;;;20.40;10.07;;;;;;;;;;5019289;28;20483;-54
2023/03/05 08:06:32;;;;;;;21.23;9.23;;;;;;;;;;5014035;28;20426;-54
2023/03/05 08:08:58;;;;;;;17.93;9.80;;;;;;;;;;5038791;28;20434;-53
2023/03/05 08:11:24;;;;;;;16.63;8.63;;;;;;;;;;5013933;28;20434;-52
2023/03/05 08:13:50;;;;;;;24.67;11.40;;;;;;;;;;5039260;28;20442;-50
2023/03/05 08:16:17;;;;;;;16.17;9.40;;;;;;;;;;5010599;28;20429;-51
2023/03/05 08:18:43;;;;;;;19.50;10.17;;;;;;;;;;5036596;28;20465;-54
2023/03/05 08:21:18;;;;;;;15.40;8.80;;;;;;;;;;5017523;28;20430;-54
2023/03/05 08:23:44;;;;;;;17.30;10.20;;;;;;;;;;5032594;28;20532;-53
2023/03/05 08:26:17;;;;;;;17.57;10.50;;;;;;;;;;5009196;28;20450;-52
2023/03/05 08:28:43;;;;;;;16.53;10.60;;;;;;;;;;5006483;28;20473;-54
2023/03/05 08:31:09;;;;;;;17.63;9.27;;;;;;;;;;4993741;28;20954;-53
2023/03/05 08:33:35;;;;;;;18.83;10.20;;;;;;;;;;5028485;28;21730;-54
2023/03/05 08:36:01;;;;;;;18.50;9.23;;;;;;;;;;5039229;28;20576;-54
2023/03/05 08:38:27;;;;;;;18.03;8.97;;;;;;;;;;4982669;28;21324;-59
2023/03/05 08:40:53;;;;;;;17.57;10.03;;;;;;;;;;5027760;28;20546;-52
2023/03/05 08:43:19;;;;;;;17.63;10.57;;;;;;;;;;5029463;28;20458;-53
2023/03/05 08:45:46;;;;;;;16.93;9.37;;;;;;;;;;5018079;28;20917;-52
2023/03/05 08:48:12;;;;;;;23.53;11.03;;;;;;;;;;5040371;28;20426;-54
2023/03/05 08:50:38;;;;;;;16.53;9.67;;;;;;;;;;5034279;28;20434;-53
2023/03/05 08:53:04;;;;;;;16.50;10.73;;;;;;;;;;5036667;28;20445;-51
2023/03/05 08:55:30;;;;;;;17.40;10.20;;;;;;;;;;4999771;28;20804;-51
2023/03/05 08:57:56;;;;;;;13.27;9.13;;;;;;;;;;5043021;28;20465;-53
2023/03/05 09:00:22;;;;;;;19.03;9.60;;;;;;;;;;5037236;28;20438;-50
2023/03/05 09:02:48;;;;;;;18.80;10.70;;;;;;;;;;5037410;28;20821;-55
2023/03/05 09:05:14;;;;;;;18.77;9.43;;;;;;;;;;5002970;28;20566;-53
2023/03/05 09:07:40;;;;;;;16.83;10.00;;;;;;;;;;5046961;28;20465;-53
2023/03/05 09:10:06;;;;;;;16.20;9.03;;;;;;;;;;4988755;28;20553;-53
2023/03/05 09:12:32;;;;;;;14.30;8.00;;;;;;;;;;5042916;28;20951;-54
2023/03/05 09:14:58;;;;;;;19.70;11.00;;;;;;;;;;5009044;28;20442;-55
2023/03/05 09:17:24;;;;;;;20.23;10.27;;;;;;;;;;5036085;28;20529;-52
2023/03/05 09:19:50;;;;;;;20.00;10.87;;;;;;;;;;5020391;28;20439;-53
2023/03/05 09:22:16;;;;;;;26.10;10.43;;;;;;;;;;5037077;28;20203;-53
2023/03/05 09:24:42;;;;;;;20.20;10.43;;;;;;;;;;5009735;28;20478;-54
2023/03/05 09:27:08;;;;;;;18.13;10.67;;;;;;;;;;5038444;28;20684;-54
2023/03/05 09:29:34;;;;;;;19.07;11.20;;;;;;;;;;5010378;28;20438;-54
2023/03/05 09:32:00;;;;;;;17.43;9.23;;;;;;;;;;5029558;28;20580;-56
2023/03/05 09:34:26;;;;;;;15.23;8.87;;;;;;;;;;4996804;28;20461;-51
2023/03/05 09:36:53;;;;;;;19.73;8.80;;;;;;;;;;5033271;28;20460;-53
2023/03/05 09:39:19;;;;;;;19.47;10.80;;;;;;;;;;4999863;28;20532;-53
2023/03/05 09:42:08;;;;;;;14.80;9.20;;;;;;;;;;5035401;28;20451;-53
2023/03/05 09:44:34;;;;;;;19.20;9.60;;;;;;;;;;4974681;28;20485;-51
2023/03/05 09:47:12;;;;;;;15.40;10.00;;;;;;;;;;5019247;28;20441;-51
2023/03/05 09:49:43;;;;;;;26.63;10.40;;;;;;;;;;4986113;28;20537;-50
2023/03/05 09:52:23;;;;;;;18.93;10.83;;;;;;;;;;5027007;28;20888;-51
2023/03/05 09:54:52;;;;;;;19.70;10.40;;;;;;;;;;5021941;28;20487;-51
2023/03/05 09:57:19;;;;;;;15.97;8.80;;;;;;;;;;5038153;28;20478;-53
2023/03/05 09:59:53;;;;;;;18.87;10.50;;;;;;;;;;4993927;28;20434;-53
2023/03/05 10:02:23;;;;;;;18.17;11.03;;;;;;;;;;5033061;28;20449;-54
2023/03/05 10:04:52;;;;;;;18.17;10.40;;;;;;;;;;4999958;28;20559;-53
2023/03/05 10:07:18;;;;;;;18.10;10.63;;;;;;;;;;5015693;28;20465;-54
2023/03/05 10:10:01;;;;;;;15.23;8.43;;;;;;;;;;4992189;28;20461;-52
2023/03/05 10:12:41;;;;;;;19.77;9.93;;;;;;;;;;5015002;28;21164;-53
2023/03/05 10:15:25;;;;;;;13.50;9.00;;;;;;;;;;4979781;28;20450;-53
2023/03/05 10:17:51;;;;;;;20.57;10.07;;;;;;;;;;5026742;28;23858;-52
2023/03/05 10:20:26;;;;;;;18.53;10.57;;;;;;;;;;5001578;28;20443;-53
2023/03/05 10:22:55;;;;;;;16.37;10.10;;;;;;;;;;5030447;28;20457;-54
2023/03/05 10:25:40;;;;;;;22.00;11.27;;;;;;;;;;5019747;28;20447;-53
2023/03/05 10:28:16;;;;;;;17.03;10.33;;;;;;;;;;5033151;28;20466;-55
2023/03/05 10:31:04;;;;;;;22.67;10.47;;;;;;;;;;5000229;28;20793;-54
2023/03/05 10:33:30;;;;;;;21.13;10.27;;;;;;;;;;5021530;28;20440;-51
2023/03/05 10:36:09;;;;;;;19.97;9.77;;;;;;;;;;5029705;28;20441;-52
2023/03/05 10:39:14;;;;;;;20.40;10.53;;;;;;;;;;5025114;28;20302;-52
2023/03/05 10:41:44;;;;;;;17.67;10.10;;;;;;;;;;4919497;28;20464;-53
2023/03/05 10:44:18;;;;;;;18.47;9.40;;;;;;;;;;4943183;28;20485;-54
2023/03/05 10:46:44;;;;;;;21.00;10.70;;;;;;;;;;4941406;28;20473;-52
2023/03/05 10:49:13;;;;;;;18.87;9.10;;;;;;;;;;5023996;28;20430;-52
2023/03/05 10:51:40;;;;;;;18.60;10.63;;;;;;;;;;5037852;28;20442;-53
2023/03/05 10:54:19;;;;;;;18.10;10.83;;;;;;;;;;5011942;28;20681;-53
2023/03/05 10:56:45;;;;;;;16.20;10.10;;;;;;;;;;5031966;28;20456;-52
2023/03/05 10:59:11;;;;;;;16.77;9.20;;;;;;;;;;5014810;28;20960;-54
2023/03/05 11:01:37;;;;;;;12.50;7.37;;;;;;;;;;5034657;28;20496;-55
2023/03/05 11:04:04;;;;;;;19.77;8.50;;;;;;;;;;5012567;28;20212;-53
2023/03/05 11:06:30;;;;;;;14.67;8.97;;;;;;;;;;5033235;28;20492;-52
2023/03/05 11:08:56;;;;;;;20.37;10.90;;;;;;;;;;5011016;28;20434;-54
2023/03/05 11:11:22;;;;;;;18.63;10.90;;;;;;;;;;5029421;28;20562;-51
2023/03/05 11:13:54;;;;;;;21.70;10.80;;;;;;;;;;5004818;28;20863;-54
2023/03/05 11:16:22;;;;;;;20.20;9.40;;;;;;;;;;5034068;28;20446;-50
2023/03/05 11:18:48;;;;;;;12.43;9.00;;;;;;;;;;4986980;28;20498;-51
2023/03/05 11:21:26;;;;;;;21.00;11.40;;;;;;;;;;5029135;28;20445;-52
2023/03/05 11:24:05;;;;;;;14.10;10.07;;;;;;;;;;5031935;28;21065;-52
2023/03/05 11:26:31;;;;;;;24.23;12.50;;;;;;;;;;5035473;28;20442;-51
2023/03/05 11:28:58;;;;;;;21.50;9.77;;;;;;;;;;5006070;28;20446;-54
2023/03/05 11:31:31;;;;;;;17.80;9.83;;;;;;;;;;5034540;28;20477;-54
2023/03/05 11:33:57;;;;;;;15.40;8.20;;;;;;;;;;5005589;28;20469;-54
2023/03/05 11:36:24;;;;;;;22.93;12.30;;;;;;;;;;5033620;28;20506;-54
2023/03/05 11:39:10;;;;;;;20.83;12.10;;;;;;;;;;4998917;28;20877;-52
2023/03/05 11:41:43;;;;;;;16.17;9.27;;;;;;;;;;5035469;28;20429;-52
2023/03/05 11:44:21;;;;;;;22.57;12.17;;;;;;;;;;4999417;28;21021;-53
2023/03/05 11:46:48;;;;;;;18.27;11.33;;;;;;;;;;5030968;28;20495;-52
2023/03/05 11:49:15;;;;;;;24.87;11.07;;;;;;;;;;5008652;28;20445;-53
2023/03/05 11:52:09;;;;;;;16.10;10.10;;;;;;;;;;5032020;28;20430;-51
2023/03/05 11:54:44;;;;;;;20.27;11.60;;;;;;;;;;5005057;28;20455;-52
2023/03/05 11:57:11;;;;;;;19.40;11.83;;;;;;;;;;5039773;28;20446;-52
2023/03/05 11:59:39;;;;;;;22.73;10.40;;;;;;;;;;5007785;28;20442;-52
2023/03/05 12:02:08;;;;;;;25.40;11.00;;;;;;;;;;5038644;28;20438;-53
2023/03/05 12:04:34;;;;;;;21.83;13.10;;;;;;;;;;5036440;28;20508;-55
2023/03/05 12:07:01;;;;;;;15.57;9.27;;;;;;;;;;5040202;28;20445;-53
2023/03/05 12:09:36;;;;;;;18.43;10.40;;;;;;;;;;5010857;28;20434;-53
2023/03/05 12:12:08;;;;;;;27.77;12.47;;;;;;;;;;5040452;28;20442;-52
2023/03/05 12:14:36;;;;;;;18.80;9.57;;;;;;;;;;5002087;28;20449;-52
2023/03/05 12:17:20;;;;;;;15.40;10.80;;;;;;;;;;5044024;28;20923;-54
2023/03/05 12:20:05;;;;;;;18.13;9.93;;;;;;;;;;4998027;28;20520;-51
2023/03/05 12:22:36;;;;;;;16.57;8.97;;;;;;;;;;5035391;28;21250;-54
2023/03/05 12:25:21;;;;;;;20.37;10.67;;;;;;;;;;4991742;28;21167;-52
2023/03/05 12:27:47;;;;;;;14.43;7.97;;;;;;;;;;5001804;28;20453;-52
2023/03/05 12:30:29;;;;;;;12.10;7.50;;;;;;;;;;5034435;28;20425;-52
2023/03/05 12:32:55;;;;;;;16.73;9.40;;;;;;;;;;5002384;28;20600;-52
2023/03/05 12:35:25;;;;;;;19.83;9.33;;;;;;;;;;5030439;28;20517;-54
2023/03/05 12:37:51;;;;;;;17.23;8.47;;;;;;;;;;5035850;28;23264;-52
2023/03/05 12:40:17;;;;;;;17.60;9.57;;;;;;;;;;5000832;28;20426;-54
2023/03/05 12:42:44;;;;;;;11.80;7.47;;;;;;;;;;5034329;28;20492;-51
2023/03/05 12:45:11;;;;;;;10.53;8.30;;;;;;;;;;5005823;28;20482;-54
2023/03/05 12:47:37;;;;;;;15.37;8.57;;;;;;;;;;5033371;28;20496;-53
2023/03/05 12:50:04;;;;;;;15.23;8.40;;;;;;;;;;5031584;28;20502;-53
2023/03/05 12:52:30;;;;;;;19.70;8.97;;;;;;;;;;5028202;28;20434;-52
2023/03/05 12:55:02;;;;;;;19.60;9.17;;;;;;;;;;4997559;28;21179;-51
2023/03/05 12:57:28;;;;;;;13.80;8.77;;;;;;;;;;5045957;28;20489;-53
2023/03/05 12:59:58;;;;;;;18.50;9.07;;;;;;;;;;5007003;28;20449;-52
2023/03/05 13:02:33;;;;;;;15.27;9.63;;;;;;;;;;5035289;28;20569;-52
2023/03/05 13:05:00;;;;;;;18.37;8.60;;;;;;;;;;5005741;28;21473;-52
2023/03/05 13:07:26;;;;;;;15.90;8.30;;;;;;;;;;5036292;28;20434;-52
2023/03/05 13:09:53;;;;;;;16.00;8.20;;;;;;;;;;5031061;28;20984;-52
2023/03/05 13:12:19;;;;;;;14.00;7.90;;;;;;;;;;5035465;28;20441;-52
2023/03/05 13:14:54;;;;;;;19.50;10.60;;;;;;;;;;5013499;28;20791;-51
2023/03/05 13:17:29;;;;;;;14.77;9.57;;;;;;;;;;5037392;28;20437;-52
2023/03/05 13:19:55;;;;;;;13.80;8.00;;;;;;;;;;5002724;28;20931;-52
2023/03/05 13:22:23;;;;;;;11.77;8.23;;;;;;;;;;5036804;28;21005;-51
2023/03/05 13:24:49;;;;;;;19.07;9.13;;;;;;;;;;5008281;28;20501;-53
2023/03/05 13:27:20;;;;;;;16.03;9.20;;;;;;;;;;5038196;28;20506;-52
2023/03/05 13:29:52;;;;;;;19.70;10.23;;;;;;;;;;5001699;28;20640;-52
2023/03/05 13:32:25;;;;;;;24.30;8.30;;;;;;;;;;5026206;28;20443;-54
2023/03/05 13:34:51;;;;;;;18.27;8.87;;;;;;;;;;5025646;28;20429;-53
2023/03/05 13:37:18;;;;;;;16.60;9.57;;;;;;;;;;5011673;28;20955;-53
2023/03/05 13:39:51;;;;;;;16.97;10.20;;;;;;;;;;5029066;28;20438;-54
2023/03/05 13:42:18;;;;;;;13.73;8.03;;;;;;;;;;5009965;28;20455;-53
2023/03/05 13:44:53;;;;;;;16.67;9.23;;;;;;;;;;5043914;28;20554;-54
2023/03/05 13:47:19;;;;;;;12.90;7.87;;;;;;;;;;5018297;28;20437;-56
2023/03/05 13:49:46;;;;;;;14.13;9.40;;;;;;;;;;5038700;28;20517;-55
2023/03/05 13:52:14;;;;;;;17.23;9.60;;;;;;;;;;5010879;28;20813;-54
2023/03/05 13:54:40;;;;;;;18.57;10.10;;;;;;;;;;5033243;28;20489;-50
2023/03/05 13:57:07;;;;;;;14.77;8.70;;;;;;;;;;5028386;28;20506;-54
2023/03/05 13:59:34;;;;;;;16.03;9.43;;;;;;;;;;5029374;28;20755;-60
2023/03/05 14:02:00;;;;;;;11.50;7.37;;;;;;;;;;4988999;28;20461;-53
2023/03/05 14:04:30;;;;;;;16.70;8.03;;;;;;;;;;5031377;28;20879;-54
2023/03/05 14:06:58;;;;;;;14.87;8.87;;;;;;;;;;5027174;28;20423;-54
2023/03/05 14:09:25;;;;;;;16.50;8.20;;;;;;;;;;5051720;28;20438;-56
2023/03/05 14:12:11;;;;;;;15.17;9.30;;;;;;;;;;5000119;28;20430;-53
2023/03/05 14:14:37;;;;;;;13.30;8.37;;;;;;;;;;5032416;28;20430;-53
2023/03/05 14:17:22;;;;;;;17.13;9.00;;;;;;;;;;5003355;28;20530;-53
2023/03/05 14:19:48;;;;;;;14.27;8.00;;;;;;;;;;5031867;28;20439;-52
2023/03/05 14:22:34;;;;;;;15.13;9.30;;;;;;;;;;5000058;28;20500;-52
2023/03/05 14:25:00;;;;;;;14.67;9.40;;;;;;;;;;5028251;28;20505;-51
2023/03/05 14:27:26;;;;;;;11.80;9.27;;;;;;;;;;5010995;28;21076;-52
2023/03/05 14:29:52;;;;;;;20.07;9.20;;;;;;;;;;5014212;28;20435;-51
2023/03/05 14:32:37;;;;;;;13.00;8.40;;;;;;;;;;4995200;28;20449;-52
2023/03/05 14:35:05;;;;;;;13.97;10.90;;;;;;;;;;5018688;28;20442;-51